sensor_id;sensor_type;location;lat;lon;timestamp;P1;durP1;ratioP1;P2;durP2;ratioP2
11427;SDS011;5770;44.504;11.346;2023-10-09T00:00:34;13.75;;;7.55;;
11427;SDS011;5770;44.504;11.346;2023-10-09T00:03:26;13.45;;;7.22;;
11427;SDS011;5770;44.504;11.346;2023-10-09T00:05:53;17.05;;;7.25;;
11427;SDS011;5770;44.504;11.346;2023-10-09T00:08:22;18.25;;;7.70;;
11427;SDS011;5770;44.504;11.346;2023-10-09T00:10:55;14.48;;;6.95;;
11427;SDS011;5770;44.504;11.346;2023-10-09T00:13:24;10.82;;;6.70;;
11427;SDS011;5770;44.504;11.346;2023-10-09T00:15:55;12.20;;;6.65;;
11427;SDS011;5770;44.504;11.346;2023-10-09T00:18:33;13.02;;;6.93;;
11427;SDS011;5770;44.504;11.346;2023-10-09T00:21:00;18.80;;;7.35;;
11427;SDS011;5770;44.504;11.346;2023-10-09T00:23:39;10.23;;;6.15;;
11427;SDS011;5770;44.504;11.346;2023-10-09T00:26:06;13.55;;;6.50;;
11427;SDS011;5770;44.504;11.346;2023-10-09T00:28:41;14.35;;;6.15;;
11427;SDS011;5770;44.504;11.346;2023-10-09T00:31:10;10.23;;;5.70;;
11427;SDS011;5770;44.504;11.346;2023-10-09T00:33:40;15.07;;;6.13;;
11427;SDS011;5770;44.504;11.346;2023-10-09T00:36:08;9.35;;;5.57;;
11427;SDS011;5770;44.504;11.346;2023-10-09T00:38:35;11.13;;;6.80;;
11427;SDS011;5770;44.504;11.346;2023-10-09T00:41:12;13.55;;;6.30;;
11427;SDS011;5770;44.504;11.346;2023-10-09T00:43:45;13.32;;;5.85;;
11427;SDS011;5770;44.504;11.346;2023-10-09T00:46:15;14.45;;;6.32;;
11427;SDS011;5770;44.504;11.346;2023-10-09T00:48:49;12.20;;;6.05;;
11427;SDS011;5770;44.504;11.346;2023-10-09T00:51:17;21.02;;;6.85;;
11427;SDS011;5770;44.504;11.346;2023-10-09T00:53:47;14.63;;;6.28;;
11427;SDS011;5770;44.504;11.346;2023-10-09T00:56:17;17.38;;;6.93;;
11427;SDS011;5770;44.504;11.346;2023-10-09T00:58:54;17.45;;;6.75;;
11427;SDS011;5770;44.504;11.346;2023-10-09T01:01:24;23.33;;;7.60;;
11427;SDS011;5770;44.504;11.346;2023-10-09T01:03:53;22.50;;;6.95;;
11427;SDS011;5770;44.504;11.346;2023-10-09T01:06:21;28.73;;;6.78;;
11427;SDS011;5770;44.504;11.346;2023-10-09T01:08:53;26.63;;;7.53;;
11427;SDS011;5770;44.504;11.346;2023-10-09T01:11:35;15.63;;;6.25;;
11427;SDS011;5770;44.504;11.346;2023-10-09T01:14:12;10.70;;;5.93;;
11427;SDS011;5770;44.504;11.346;2023-10-09T01:16:39;12.65;;;6.38;;
11427;SDS011;5770;44.504;11.346;2023-10-09T01:19:12;10.82;;;5.60;;
11427;SDS011;5770;44.504;11.346;2023-10-09T01:21:48;10.80;;;6.50;;
11427;SDS011;5770;44.504;11.346;2023-10-09T01:24:17;13.48;;;7.05;;
11427;SDS011;5770;44.504;11.346;2023-10-09T01:26:46;12.57;;;6.50;;
11427;SDS011;5770;44.504;11.346;2023-10-09T01:29:15;11.27;;;6.80;;
11427;SDS011;5770;44.504;11.346;2023-10-09T01:31:44;12.93;;;6.15;;
11427;SDS011;5770;44.504;11.346;2023-10-09T01:34:17;13.70;;;6.95;;
11427;SDS011;5770;44.504;11.346;2023-10-09T01:36:49;15.82;;;6.28;;
11427;SDS011;5770;44.504;11.346;2023-10-09T01:39:20;10.90;;;6.13;;
11427;SDS011;5770;44.504;11.346;2023-10-09T01:41:48;12.98;;;6.10;;
11427;SDS011;5770;44.504;11.346;2023-10-09T01:44:23;12.73;;;6.07;;
11427;SDS011;5770;44.504;11.346;2023-10-09T01:46:51;17.15;;;6.35;;
11427;SDS011;5770;44.504;11.346;2023-10-09T01:49:20;9.68;;;5.30;;
11427;SDS011;5770;44.504;11.346;2023-10-09T01:51:54;13.63;;;5.75;;
11427;SDS011;5770;44.504;11.346;2023-10-09T01:54:25;11.75;;;5.32;;
11427;SDS011;5770;44.504;11.346;2023-10-09T01:57:09;12.68;;;5.35;;
11427;SDS011;5770;44.504;11.346;2023-10-09T01:59:38;15.85;;;5.72;;
11427;SDS011;5770;44.504;11.346;2023-10-09T02:02:09;11.90;;;5.78;;
11427;SDS011;5770;44.504;11.346;2023-10-09T02:04:49;8.00;;;5.13;;
11427;SDS011;5770;44.504;11.346;2023-10-09T02:07:18;10.25;;;5.68;;
11427;SDS011;5770;44.504;11.346;2023-10-09T02:09:53;15.32;;;6.18;;
11427;SDS011;5770;44.504;11.346;2023-10-09T02:12:21;12.50;;;5.43;;
11427;SDS011;5770;44.504;11.346;2023-10-09T02:14:49;15.38;;;6.38;;
11427;SDS011;5770;44.504;11.346;2023-10-09T02:17:19;11.15;;;5.93;;
11427;SDS011;5770;44.504;11.346;2023-10-09T02:19:50;11.60;;;5.93;;
11427;SDS011;5770;44.504;11.346;2023-10-09T02:22:17;12.05;;;6.10;;
11427;SDS011;5770;44.504;11.346;2023-10-09T02:24:45;14.93;;;6.25;;
11427;SDS011;5770;44.504;11.346;2023-10-09T02:27:25;9.13;;;5.72;;
11427;SDS011;5770;44.504;11.346;2023-10-09T02:30:12;12.27;;;5.78;;
11427;SDS011;5770;44.504;11.346;2023-10-09T02:32:45;11.23;;;5.57;;
11427;SDS011;5770;44.504;11.346;2023-10-09T02:35:18;8.25;;;5.38;;
11427;SDS011;5770;44.504;11.346;2023-10-09T02:37:53;15.20;;;5.82;;
11427;SDS011;5770;44.504;11.346;2023-10-09T02:40:20;11.82;;;5.38;;
11427;SDS011;5770;44.504;11.346;2023-10-09T02:42:54;12.13;;;5.63;;
11427;SDS011;5770;44.504;11.346;2023-10-09T02:45:21;9.10;;;5.40;;
11427;SDS011;5770;44.504;11.346;2023-10-09T02:47:54;13.80;;;5.47;;
11427;SDS011;5770;44.504;11.346;2023-10-09T02:50:22;13.13;;;6.00;;
11427;SDS011;5770;44.504;11.346;2023-10-09T02:52:53;11.25;;;5.38;;
11427;SDS011;5770;44.504;11.346;2023-10-09T02:55:26;10.10;;;5.70;;
11427;SDS011;5770;44.504;11.346;2023-10-09T02:57:55;12.70;;;5.13;;
11427;SDS011;5770;44.504;11.346;2023-10-09T03:00:32;10.32;;;5.95;;
11427;SDS011;5770;44.504;11.346;2023-10-09T03:03:01;11.95;;;6.00;;
11427;SDS011;5770;44.504;11.346;2023-10-09T03:05:31;16.13;;;6.53;;
11427;SDS011;5770;44.504;11.346;2023-10-09T03:07:58;10.00;;;6.10;;
11427;SDS011;5770;44.504;11.346;2023-10-09T03:10:27;11.50;;;6.15;;
11427;SDS011;5770;44.504;11.346;2023-10-09T03:12:55;20.13;;;9.82;;
11427;SDS011;5770;44.504;11.346;2023-10-09T03:15:26;10.93;;;6.60;;
11427;SDS011;5770;44.504;11.346;2023-10-09T03:17:59;17.17;;;6.97;;
11427;SDS011;5770;44.504;11.346;2023-10-09T03:20:27;15.35;;;6.57;;
11427;SDS011;5770;44.504;11.346;2023-10-09T03:22:55;13.40;;;6.60;;
11427;SDS011;5770;44.504;11.346;2023-10-09T03:25:23;12.23;;;6.97;;
11427;SDS011;5770;44.504;11.346;2023-10-09T03:27:50;13.10;;;6.60;;
11427;SDS011;5770;44.504;11.346;2023-10-09T03:30:22;10.90;;;6.28;;
11427;SDS011;5770;44.504;11.346;2023-10-09T03:32:49;13.43;;;7.05;;
11427;SDS011;5770;44.504;11.346;2023-10-09T03:35:17;14.13;;;6.72;;
11427;SDS011;5770;44.504;11.346;2023-10-09T03:37:53;10.38;;;6.25;;
11427;SDS011;5770;44.504;11.346;2023-10-09T03:40:22;13.35;;;7.22;;
11427;SDS011;5770;44.504;11.346;2023-10-09T03:42:50;17.00;;;6.78;;
11427;SDS011;5770;44.504;11.346;2023-10-09T03:45:18;10.10;;;6.15;;
11427;SDS011;5770;44.504;11.346;2023-10-09T03:47:54;13.07;;;6.22;;
11427;SDS011;5770;44.504;11.346;2023-10-09T03:50:29;10.57;;;6.55;;
11427;SDS011;5770;44.504;11.346;2023-10-09T03:53:03;15.63;;;6.57;;
11427;SDS011;5770;44.504;11.346;2023-10-09T03:55:33;14.57;;;7.45;;
11427;SDS011;5770;44.504;11.346;2023-10-09T03:58:00;9.15;;;6.05;;
11427;SDS011;5770;44.504;11.346;2023-10-09T04:00:28;13.55;;;6.57;;
11427;SDS011;5770;44.504;11.346;2023-10-09T04:02:58;11.98;;;5.28;;
11427;SDS011;5770;44.504;11.346;2023-10-09T04:05:26;8.25;;;6.25;;
11427;SDS011;5770;44.504;11.346;2023-10-09T04:07:54;11.05;;;6.07;;
11427;SDS011;5770;44.504;11.346;2023-10-09T04:10:24;13.40;;;6.03;;
11427;SDS011;5770;44.504;11.346;2023-10-09T04:13:16;13.30;;;5.63;;
11427;SDS011;5770;44.504;11.346;2023-10-09T04:15:47;16.00;;;6.43;;
11427;SDS011;5770;44.504;11.346;2023-10-09T04:18:16;13.13;;;6.35;;
11427;SDS011;5770;44.504;11.346;2023-10-09T04:20:53;12.23;;;6.57;;
11427;SDS011;5770;44.504;11.346;2023-10-09T04:23:38;11.25;;;6.63;;
11427;SDS011;5770;44.504;11.346;2023-10-09T04:26:19;15.20;;;6.32;;
11427;SDS011;5770;44.504;11.346;2023-10-09T04:28:50;9.38;;;6.38;;
11427;SDS011;5770;44.504;11.346;2023-10-09T04:31:18;15.45;;;6.25;;
11427;SDS011;5770;44.504;11.346;2023-10-09T04:33:48;13.48;;;6.63;;
11427;SDS011;5770;44.504;11.346;2023-10-09T04:36:43;12.65;;;6.50;;
11427;SDS011;5770;44.504;11.346;2023-10-09T04:39:15;12.35;;;6.45;;
11427;SDS011;5770;44.504;11.346;2023-10-09T04:42:00;15.48;;;6.65;;
11427;SDS011;5770;44.504;11.346;2023-10-09T04:44:42;15.07;;;6.50;;
11427;SDS011;5770;44.504;11.346;2023-10-09T04:47:25;18.38;;;6.93;;
11427;SDS011;5770;44.504;11.346;2023-10-09T04:50:02;12.43;;;6.10;;
11427;SDS011;5770;44.504;11.346;2023-10-09T04:52:36;15.25;;;5.47;;
11427;SDS011;5770;44.504;11.346;2023-10-09T04:55:18;15.55;;;6.70;;
11427;SDS011;5770;44.504;11.346;2023-10-09T04:57:50;11.73;;;5.72;;
11427;SDS011;5770;44.504;11.346;2023-10-09T05:00:34;12.88;;;6.20;;
11427;SDS011;5770;44.504;11.346;2023-10-09T05:03:17;13.88;;;5.97;;
11427;SDS011;5770;44.504;11.346;2023-10-09T05:05:54;14.93;;;5.90;;
11427;SDS011;5770;44.504;11.346;2023-10-09T05:08:25;10.25;;;6.05;;
11427;SDS011;5770;44.504;11.346;2023-10-09T05:10:55;14.95;;;5.50;;
11427;SDS011;5770;44.504;11.346;2023-10-09T05:13:40;15.38;;;5.90;;
11427;SDS011;5770;44.504;11.346;2023-10-09T05:16:22;16.17;;;5.53;;
11427;SDS011;5770;44.504;11.346;2023-10-09T05:18:51;14.68;;;5.53;;
11427;SDS011;5770;44.504;11.346;2023-10-09T05:21:23;20.90;;;5.78;;
11427;SDS011;5770;44.504;11.346;2023-10-09T05:24:10;13.40;;;5.03;;
11427;SDS011;5770;44.504;11.346;2023-10-09T05:26:45;12.73;;;5.20;;
11427;SDS011;5770;44.504;11.346;2023-10-09T05:29:17;10.98;;;5.00;;
11427;SDS011;5770;44.504;11.346;2023-10-09T05:31:45;10.35;;;4.68;;
11427;SDS011;5770;44.504;11.346;2023-10-09T05:34:22;16.25;;;5.93;;
11427;SDS011;5770;44.504;11.346;2023-10-09T05:36:49;13.35;;;5.28;;
11427;SDS011;5770;44.504;11.346;2023-10-09T05:39:17;11.73;;;4.55;;
11427;SDS011;5770;44.504;11.346;2023-10-09T05:41:47;15.50;;;5.28;;
11427;SDS011;5770;44.504;11.346;2023-10-09T05:44:24;13.80;;;5.25;;
11427;SDS011;5770;44.504;11.346;2023-10-09T05:47:09;18.60;;;5.25;;
11427;SDS011;5770;44.504;11.346;2023-10-09T05:49:56;12.20;;;4.53;;
11427;SDS011;5770;44.504;11.346;2023-10-09T05:52:48;17.30;;;5.30;;
11427;SDS011;5770;44.504;11.346;2023-10-09T05:55:31;16.00;;;5.47;;
11427;SDS011;5770;44.504;11.346;2023-10-09T05:58:16;15.55;;;4.95;;
11427;SDS011;5770;44.504;11.346;2023-10-09T06:01:01;11.38;;;4.43;;
11427;SDS011;5770;44.504;11.346;2023-10-09T06:03:52;13.82;;;5.03;;
11427;SDS011;5770;44.504;11.346;2023-10-09T06:06:29;12.52;;;4.93;;
11427;SDS011;5770;44.504;11.346;2023-10-09T06:09:09;13.18;;;5.18;;
11427;SDS011;5770;44.504;11.346;2023-10-09T06:11:54;13.88;;;4.70;;
11427;SDS011;5770;44.504;11.346;2023-10-09T06:14:41;15.90;;;4.85;;
11427;SDS011;5770;44.504;11.346;2023-10-09T06:17:22;15.52;;;4.97;;
11427;SDS011;5770;44.504;11.346;2023-10-09T06:19:49;15.68;;;4.60;;
11427;SDS011;5770;44.504;11.346;2023-10-09T06:22:23;12.93;;;4.85;;
11427;SDS011;5770;44.504;11.346;2023-10-09T06:25:12;13.93;;;5.15;;
11427;SDS011;5770;44.504;11.346;2023-10-09T06:27:43;13.25;;;4.60;;
11427;SDS011;5770;44.504;11.346;2023-10-09T06:30:22;14.27;;;5.57;;
11427;SDS011;5770;44.504;11.346;2023-10-09T06:32:54;15.00;;;4.55;;
11427;SDS011;5770;44.504;11.346;2023-10-09T06:35:23;17.20;;;5.35;;
11427;SDS011;5770;44.504;11.346;2023-10-09T06:37:57;16.48;;;5.03;;
11427;SDS011;5770;44.504;11.346;2023-10-09T06:40:49;9.50;;;4.38;;
11427;SDS011;5770;44.504;11.346;2023-10-09T06:43:42;16.10;;;5.53;;
11427;SDS011;5770;44.504;11.346;2023-10-09T06:46:15;12.13;;;5.22;;
11427;SDS011;5770;44.504;11.346;2023-10-09T06:49:00;14.00;;;4.68;;
11427;SDS011;5770;44.504;11.346;2023-10-09T06:51:49;14.80;;;5.00;;
11427;SDS011;5770;44.504;11.346;2023-10-09T06:54:20;13.40;;;4.85;;
11427;SDS011;5770;44.504;11.346;2023-10-09T06:56:52;12.27;;;4.47;;
11427;SDS011;5770;44.504;11.346;2023-10-09T06:59:39;15.43;;;5.38;;
11427;SDS011;5770;44.504;11.346;2023-10-09T07:02:29;17.30;;;4.82;;
11427;SDS011;5770;44.504;11.346;2023-10-09T07:05:11;16.58;;;5.47;;
11427;SDS011;5770;44.504;11.346;2023-10-09T07:07:42;13.10;;;4.82;;
11427;SDS011;5770;44.504;11.346;2023-10-09T07:10:20;15.30;;;4.65;;
11427;SDS011;5770;44.504;11.346;2023-10-09T07:12:59;15.18;;;4.75;;
11427;SDS011;5770;44.504;11.346;2023-10-09T07:15:27;15.55;;;4.88;;
11427;SDS011;5770;44.504;11.346;2023-10-09T07:18:12;13.50;;;4.90;;
11427;SDS011;5770;44.504;11.346;2023-10-09T07:20:48;16.60;;;5.60;;
11427;SDS011;5770;44.504;11.346;2023-10-09T07:23:26;17.95;;;5.57;;
11427;SDS011;5770;44.504;11.346;2023-10-09T07:26:04;20.20;;;5.55;;
11427;SDS011;5770;44.504;11.346;2023-10-09T07:28:45;14.88;;;4.88;;
11427;SDS011;5770;44.504;11.346;2023-10-09T07:31:18;21.27;;;5.03;;
11427;SDS011;5770;44.504;11.346;2023-10-09T07:33:52;15.98;;;5.72;;
11427;SDS011;5770;44.504;11.346;2023-10-09T07:36:31;20.45;;;6.53;;
11427;SDS011;5770;44.504;11.346;2023-10-09T07:39:03;15.55;;;5.88;;
11427;SDS011;5770;44.504;11.346;2023-10-09T07:41:40;13.23;;;5.10;;
11427;SDS011;5770;44.504;11.346;2023-10-09T07:44:22;17.02;;;5.35;;
11427;SDS011;5770;44.504;11.346;2023-10-09T07:47:04;21.60;;;10.55;;
11427;SDS011;5770;44.504;11.346;2023-10-09T07:49:45;25.85;;;10.02;;
11427;SDS011;5770;44.504;11.346;2023-10-09T07:52:19;20.30;;;7.45;;
11427;SDS011;5770;44.504;11.346;2023-10-09T07:54:48;18.17;;;6.93;;
11427;SDS011;5770;44.504;11.346;2023-10-09T07:57:30;17.58;;;6.10;;
11427;SDS011;5770;44.504;11.346;2023-10-09T08:00:06;18.45;;;5.88;;
11427;SDS011;5770;44.504;11.346;2023-10-09T08:02:53;12.48;;;5.50;;
11427;SDS011;5770;44.504;11.346;2023-10-09T08:05:25;10.32;;;4.93;;
11427;SDS011;5770;44.504;11.346;2023-10-09T08:07:58;12.82;;;4.93;;
11427;SDS011;5770;44.504;11.346;2023-10-09T08:10:43;19.85;;;6.15;;
11427;SDS011;5770;44.504;11.346;2023-10-09T08:13:28;11.80;;;5.65;;
11427;SDS011;5770;44.504;11.346;2023-10-09T08:16:14;17.13;;;5.80;;
11427;SDS011;5770;44.504;11.346;2023-10-09T08:18:47;20.65;;;6.35;;
11427;SDS011;5770;44.504;11.346;2023-10-09T08:21:16;16.67;;;6.82;;
11427;SDS011;5770;44.504;11.346;2023-10-09T08:24:02;19.83;;;7.57;;
11427;SDS011;5770;44.504;11.346;2023-10-09T08:26:30;17.80;;;7.45;;
11427;SDS011;5770;44.504;11.346;2023-10-09T08:29:12;12.52;;;5.60;;
11427;SDS011;5770;44.504;11.346;2023-10-09T08:31:44;11.63;;;5.65;;
11427;SDS011;5770;44.504;11.346;2023-10-09T08:34:10;14.23;;;5.53;;
11427;SDS011;5770;44.504;11.346;2023-10-09T08:36:49;14.55;;;5.45;;
11427;SDS011;5770;44.504;11.346;2023-10-09T08:39:17;9.68;;;4.85;;
11427;SDS011;5770;44.504;11.346;2023-10-09T08:41:50;16.90;;;5.80;;
11427;SDS011;5770;44.504;11.346;2023-10-09T08:44:19;18.75;;;5.80;;
11427;SDS011;5770;44.504;11.346;2023-10-09T08:46:49;15.80;;;5.35;;
11427;SDS011;5770;44.504;11.346;2023-10-09T08:49:16;16.60;;;5.22;;
11427;SDS011;5770;44.504;11.346;2023-10-09T08:51:46;8.25;;;4.72;;
11427;SDS011;5770;44.504;11.346;2023-10-09T08:54:13;12.38;;;5.50;;
11427;SDS011;5770;44.504;11.346;2023-10-09T08:56:42;15.65;;;5.68;;
11427;SDS011;5770;44.504;11.346;2023-10-09T08:59:14;21.45;;;4.85;;
11427;SDS011;5770;44.504;11.346;2023-10-09T09:01:44;18.52;;;5.20;;
11427;SDS011;5770;44.504;11.346;2023-10-09T09:07:22;16.40;;;5.22;;
11427;SDS011;5770;44.504;11.346;2023-10-09T09:09:54;16.48;;;4.78;;
11427;SDS011;5770;44.504;11.346;2023-10-09T09:12:22;18.27;;;5.55;;
11427;SDS011;5770;44.504;11.346;2023-10-09T09:14:50;11.80;;;4.38;;
11427;SDS011;5770;44.504;11.346;2023-10-09T09:17:22;15.10;;;5.35;;
11427;SDS011;5770;44.504;11.346;2023-10-09T09:19:55;14.38;;;5.25;;
11427;SDS011;5770;44.504;11.346;2023-10-09T09:22:23;14.35;;;4.82;;
11427;SDS011;5770;44.504;11.346;2023-10-09T09:24:56;19.70;;;5.47;;
11427;SDS011;5770;44.504;11.346;2023-10-09T09:27:43;15.48;;;5.03;;
11427;SDS011;5770;44.504;11.346;2023-10-09T09:30:24;14.93;;;5.22;;
11427;SDS011;5770;44.504;11.346;2023-10-09T09:33:00;20.48;;;5.57;;
11427;SDS011;5770;44.504;11.346;2023-10-09T09:35:59;13.35;;;4.97;;
11427;SDS011;5770;44.504;11.346;2023-10-09T09:38:29;25.20;;;5.53;;
11427;SDS011;5770;44.504;11.346;2023-10-09T09:41:07;15.55;;;5.40;;
11427;SDS011;5770;44.504;11.346;2023-10-09T09:43:37;16.48;;;5.07;;
11427;SDS011;5770;44.504;11.346;2023-10-09T09:46:06;16.52;;;5.10;;
11427;SDS011;5770;44.504;11.346;2023-10-09T09:48:39;15.40;;;5.40;;
11427;SDS011;5770;44.504;11.346;2023-10-09T09:51:14;18.23;;;5.47;;
11427;SDS011;5770;44.504;11.346;2023-10-09T09:53:42;18.25;;;5.78;;
11427;SDS011;5770;44.504;11.346;2023-10-09T09:56:16;15.32;;;4.57;;
11427;SDS011;5770;44.504;11.346;2023-10-09T09:58:48;15.98;;;4.57;;
11427;SDS011;5770;44.504;11.346;2023-10-09T10:01:19;15.10;;;5.93;;
11427;SDS011;5770;44.504;11.346;2023-10-09T10:03:51;9.68;;;6.22;;
11427;SDS011;5770;44.504;11.346;2023-10-09T10:06:24;19.20;;;8.10;;
11427;SDS011;5770;44.504;11.346;2023-10-09T10:08:51;26.35;;;8.68;;
11427;SDS011;5770;44.504;11.346;2023-10-09T10:14:05;19.98;;;9.45;;
11427;SDS011;5770;44.504;11.346;2023-10-09T10:16:44;18.30;;;7.78;;
11427;SDS011;5770;44.504;11.346;2023-10-09T10:19:36;14.02;;;6.88;;
11427;SDS011;5770;44.504;11.346;2023-10-09T10:22:49;23.20;;;6.47;;
11427;SDS011;5770;44.504;11.346;2023-10-09T10:25:32;13.80;;;5.38;;
11427;SDS011;5770;44.504;11.346;2023-10-09T10:28:15;18.20;;;5.68;;
11427;SDS011;5770;44.504;11.346;2023-10-09T10:30:53;16.55;;;5.93;;
11427;SDS011;5770;44.504;11.346;2023-10-09T10:33:20;16.70;;;5.50;;
11427;SDS011;5770;44.504;11.346;2023-10-09T10:35:49;15.13;;;4.57;;
11427;SDS011;5770;44.504;11.346;2023-10-09T10:38:32;19.15;;;5.28;;
11427;SDS011;5770;44.504;11.346;2023-10-09T10:41:08;16.65;;;5.28;;
11427;SDS011;5770;44.504;11.346;2023-10-09T10:43:37;20.20;;;5.70;;
11427;SDS011;5770;44.504;11.346;2023-10-09T10:46:13;21.08;;;5.35;;
11427;SDS011;5770;44.504;11.346;2023-10-09T10:48:49;18.88;;;4.97;;
11427;SDS011;5770;44.504;11.346;2023-10-09T10:51:24;16.50;;;4.78;;
11427;SDS011;5770;44.504;11.346;2023-10-09T10:54:01;22.77;;;5.40;;
11427;SDS011;5770;44.504;11.346;2023-10-09T10:56:43;14.88;;;4.40;;
11427;SDS011;5770;44.504;11.346;2023-10-09T10:59:14;16.02;;;4.50;;
11427;SDS011;5770;44.504;11.346;2023-10-09T11:01:48;22.30;;;5.18;;
11427;SDS011;5770;44.504;11.346;2023-10-09T11:04:38;15.65;;;4.03;;
11427;SDS011;5770;44.504;11.346;2023-10-09T11:07:08;11.00;;;3.92;;
11427;SDS011;5770;44.504;11.346;2023-10-09T11:09:45;18.75;;;4.78;;
11427;SDS011;5770;44.504;11.346;2023-10-09T11:12:42;18.77;;;4.93;;
11427;SDS011;5770;44.504;11.346;2023-10-09T11:15:31;15.02;;;4.38;;
11427;SDS011;5770;44.504;11.346;2023-10-09T11:18:03;15.45;;;5.10;;
11427;SDS011;5770;44.504;11.346;2023-10-09T11:20:33;13.77;;;4.63;;
11427;SDS011;5770;44.504;11.346;2023-10-09T11:23:01;14.07;;;4.55;;
11427;SDS011;5770;44.504;11.346;2023-10-09T11:25:45;19.90;;;4.90;;
11427;SDS011;5770;44.504;11.346;2023-10-09T11:28:33;14.73;;;4.97;;
11427;SDS011;5770;44.504;11.346;2023-10-09T11:31:12;19.67;;;4.97;;
11427;SDS011;5770;44.504;11.346;2023-10-09T11:33:44;11.73;;;4.60;;
11427;SDS011;5770;44.504;11.346;2023-10-09T11:36:13;12.73;;;5.00;;
11427;SDS011;5770;44.504;11.346;2023-10-09T11:38:40;17.27;;;3.97;;
11427;SDS011;5770;44.504;11.346;2023-10-09T11:41:19;15.23;;;4.15;;
11427;SDS011;5770;44.504;11.346;2023-10-09T11:43:48;17.63;;;5.07;;
11427;SDS011;5770;44.504;11.346;2023-10-09T11:46:18;21.38;;;4.88;;
11427;SDS011;5770;44.504;11.346;2023-10-09T11:49:13;19.40;;;4.32;;
11427;SDS011;5770;44.504;11.346;2023-10-09T11:52:05;20.63;;;4.72;;
11427;SDS011;5770;44.504;11.346;2023-10-09T11:54:53;16.10;;;4.28;;
11427;SDS011;5770;44.504;11.346;2023-10-09T11:57:25;23.35;;;5.07;;
11427;SDS011;5770;44.504;11.346;2023-10-09T12:00:00;18.98;;;5.18;;
11427;SDS011;5770;44.504;11.346;2023-10-09T12:02:35;18.35;;;4.97;;
11427;SDS011;5770;44.504;11.346;2023-10-09T12:05:09;19.67;;;4.45;;
11427;SDS011;5770;44.504;11.346;2023-10-09T12:07:42;19.77;;;6.05;;
11427;SDS011;5770;44.504;11.346;2023-10-09T12:10:11;22.63;;;4.88;;
11427;SDS011;5770;44.504;11.346;2023-10-09T12:15:23;12.38;;;4.72;;
11427;SDS011;5770;44.504;11.346;2023-10-09T12:17:50;15.73;;;5.38;;
11427;SDS011;5770;44.504;11.346;2023-10-09T12:20:20;20.58;;;5.10;;
11427;SDS011;5770;44.504;11.346;2023-10-09T12:22:57;18.58;;;3.95;;
11427;SDS011;5770;44.504;11.346;2023-10-09T12:25:24;21.70;;;5.28;;
11427;SDS011;5770;44.504;11.346;2023-10-09T12:27:51;26.90;;;4.97;;
11427;SDS011;5770;44.504;11.346;2023-10-09T12:30:23;17.77;;;5.30;;
11427;SDS011;5770;44.504;11.346;2023-10-09T12:32:53;18.52;;;4.95;;
11427;SDS011;5770;44.504;11.346;2023-10-09T12:35:22;22.42;;;5.78;;
11427;SDS011;5770;44.504;11.346;2023-10-09T12:37:53;15.95;;;4.95;;
11427;SDS011;5770;44.504;11.346;2023-10-09T12:40:21;20.50;;;4.60;;
11427;SDS011;5770;44.504;11.346;2023-10-09T12:42:54;24.52;;;5.78;;
11427;SDS011;5770;44.504;11.346;2023-10-09T12:45:25;18.08;;;4.78;;
11427;SDS011;5770;44.504;11.346;2023-10-09T12:47:53;19.08;;;4.78;;
11427;SDS011;5770;44.504;11.346;2023-10-09T12:50:24;24.63;;;4.60;;
11427;SDS011;5770;44.504;11.346;2023-10-09T12:52:54;25.23;;;4.30;;
11427;SDS011;5770;44.504;11.346;2023-10-09T12:55:22;19.08;;;4.55;;
11427;SDS011;5770;44.504;11.346;2023-10-09T12:57:57;16.35;;;4.95;;
11427;SDS011;5770;44.504;11.346;2023-10-09T13:00:32;23.63;;;4.97;;
11427;SDS011;5770;44.504;11.346;2023-10-09T13:03:02;16.42;;;4.40;;
11427;SDS011;5770;44.504;11.346;2023-10-09T13:05:39;23.85;;;5.43;;
11427;SDS011;5770;44.504;11.346;2023-10-09T13:08:17;14.82;;;4.85;;
11427;SDS011;5770;44.504;11.346;2023-10-09T13:10:46;14.80;;;4.38;;
11427;SDS011;5770;44.504;11.346;2023-10-09T13:13:19;16.30;;;4.47;;
11427;SDS011;5770;44.504;11.346;2023-10-09T13:15:47;15.40;;;4.40;;
11427;SDS011;5770;44.504;11.346;2023-10-09T13:18:15;21.55;;;4.97;;
11427;SDS011;5770;44.504;11.346;2023-10-09T13:20:41;19.65;;;6.72;;
11427;SDS011;5770;44.504;11.346;2023-10-09T13:23:10;21.40;;;9.75;;
11427;SDS011;5770;44.504;11.346;2023-10-09T13:25:39;23.30;;;7.68;;
11427;SDS011;5770;44.504;11.346;2023-10-09T13:28:07;16.58;;;5.20;;
11427;SDS011;5770;44.504;11.346;2023-10-09T13:30:37;16.90;;;5.07;;
11427;SDS011;5770;44.504;11.346;2023-10-09T13:33:15;14.07;;;4.40;;
11427;SDS011;5770;44.504;11.346;2023-10-09T13:35:47;18.30;;;4.38;;
11427;SDS011;5770;44.504;11.346;2023-10-09T13:38:16;22.98;;;4.50;;
11427;SDS011;5770;44.504;11.346;2023-10-09T13:40:43;15.43;;;4.55;;
11427;SDS011;5770;44.504;11.346;2023-10-09T13:43:10;21.23;;;4.95;;
11427;SDS011;5770;44.504;11.346;2023-10-09T13:45:41;21.33;;;5.07;;
11427;SDS011;5770;44.504;11.346;2023-10-09T13:48:16;16.52;;;4.07;;
11427;SDS011;5770;44.504;11.346;2023-10-09T13:50:46;17.13;;;4.10;;
11427;SDS011;5770;44.504;11.346;2023-10-09T13:53:13;18.35;;;4.30;;
11427;SDS011;5770;44.504;11.346;2023-10-09T13:55:41;14.48;;;4.45;;
11427;SDS011;5770;44.504;11.346;2023-10-09T13:58:09;24.63;;;4.93;;
11427;SDS011;5770;44.504;11.346;2023-10-09T14:00:45;15.13;;;5.30;;
11427;SDS011;5770;44.504;11.346;2023-10-09T14:03:17;9.77;;;4.25;;
11427;SDS011;5770;44.504;11.346;2023-10-09T14:05:48;19.13;;;4.68;;
11427;SDS011;5770;44.504;11.346;2023-10-09T14:08:22;20.40;;;4.93;;
11427;SDS011;5770;44.504;11.346;2023-10-09T14:10:51;13.98;;;4.50;;
11427;SDS011;5770;44.504;11.346;2023-10-09T14:13:19;18.90;;;5.18;;
11427;SDS011;5770;44.504;11.346;2023-10-09T14:15:53;18.17;;;4.65;;
11427;SDS011;5770;44.504;11.346;2023-10-09T14:18:22;24.05;;;7.60;;
11427;SDS011;5770;44.504;11.346;2023-10-09T14:20:49;15.20;;;5.25;;
11427;SDS011;5770;44.504;11.346;2023-10-09T14:23:21;19.70;;;5.35;;
11427;SDS011;5770;44.504;11.346;2023-10-09T14:25:49;20.77;;;4.97;;
11427;SDS011;5770;44.504;11.346;2023-10-09T14:28:21;16.17;;;5.40;;
11427;SDS011;5770;44.504;11.346;2023-10-09T14:30:53;23.55;;;5.30;;
11427;SDS011;5770;44.504;11.346;2023-10-09T14:33:25;16.80;;;5.22;;
11427;SDS011;5770;44.504;11.346;2023-10-09T14:36:00;20.33;;;5.25;;
11427;SDS011;5770;44.504;11.346;2023-10-09T14:38:30;16.83;;;5.30;;
11427;SDS011;5770;44.504;11.346;2023-10-09T14:40:58;20.92;;;5.35;;
11427;SDS011;5770;44.504;11.346;2023-10-09T14:43:27;19.25;;;6.28;;
11427;SDS011;5770;44.504;11.346;2023-10-09T14:45:58;20.05;;;5.95;;
11427;SDS011;5770;44.504;11.346;2023-10-09T14:48:26;16.75;;;5.45;;
11427;SDS011;5770;44.504;11.346;2023-10-09T14:50:54;17.83;;;6.05;;
11427;SDS011;5770;44.504;11.346;2023-10-09T14:53:29;20.00;;;5.43;;
11427;SDS011;5770;44.504;11.346;2023-10-09T14:55:56;15.23;;;4.95;;
11427;SDS011;5770;44.504;11.346;2023-10-09T14:58:24;17.02;;;4.38;;
11427;SDS011;5770;44.504;11.346;2023-10-09T15:00:54;22.83;;;6.13;;
11427;SDS011;5770;44.504;11.346;2023-10-09T15:03:21;15.27;;;4.47;;
11427;SDS011;5770;44.504;11.346;2023-10-09T15:05:49;18.85;;;5.25;;
11427;SDS011;5770;44.504;11.346;2023-10-09T15:08:16;22.02;;;4.60;;
11427;SDS011;5770;44.504;11.346;2023-10-09T15:10:44;15.75;;;4.80;;
11427;SDS011;5770;44.504;11.346;2023-10-09T15:13:12;21.60;;;5.22;;
11427;SDS011;5770;44.504;11.346;2023-10-09T15:15:41;28.48;;;4.93;;
11427;SDS011;5770;44.504;11.346;2023-10-09T15:18:08;20.70;;;5.22;;
11427;SDS011;5770;44.504;11.346;2023-10-09T15:20:38;16.85;;;5.10;;
11427;SDS011;5770;44.504;11.346;2023-10-09T15:23:07;17.02;;;4.88;;